Time;durP1;ratioP1;P1;durP2;ratioP2;P2;SDS_P1;SDS_P2;PMS_P1;PMS_P2;Temp;Humidity;BMP_temperature;BMP_pressure;BME280_temperature;BME280_humidity;BME280_pressure;Samples;Min_cycle;Max_cycle;Signal;HPM_P1;HPM_P2
2023/09/03 00:00:46;;;;;;;5.03;3.50;;;;;;;17.55;100.00;97189.78;5115828;28;20197;-52
2023/09/03 00:03:13;;;;;;;5.55;3.72;;;;;;;17.46;100.00;97194.34;5113838;28;20205;-53
2023/09/03 00:05:49;;;;;;;4.78;3.60;;;;;;;17.43;100.00;97191.97;5113735;28;20217;-53
2023/09/03 00:08:16;;;;;;;4.25;3.88;;;;;;;17.40;100.00;97184.31;5113431;28;20238;-53
2023/09/03 00:10:42;;;;;;;4.30;3.90;;;;;;;17.41;100.00;97196.69;5113957;28;20189;-54
2023/09/03 00:13:08;;;;;;;6.03;4.10;;;;;;;17.44;100.00;97199.00;5115623;28;20204;-54
2023/09/03 00:15:39;;;;;;;4.80;4.20;;;;;;;17.35;100.00;97200.06;5114852;28;20215;-54
2023/09/03 00:18:06;;;;;;;6.75;4.05;;;;;;;17.26;100.00;97198.38;5114647;28;20284;-54
2023/09/03 00:20:32;;;;;;;4.50;4.10;;;;;;;17.28;100.00;97202.56;5115221;28;20201;-52
2023/09/03 00:22:59;;;;;;;6.47;4.63;;;;;;;17.26;100.00;97206.41;5115420;28;20201;-51
2023/09/03 00:25:25;;;;;;;5.45;4.25;;;;;;;17.25;100.00;97210.09;5112810;28;20532;-53
2023/09/03 00:27:52;;;;;;;5.40;3.97;;;;;;;17.27;100.00;97208.91;5112628;28;20232;-52
2023/09/03 00:30:19;;;;;;;4.10;3.80;;;;;;;17.26;100.00;97201.06;5113282;28;20209;-54
2023/09/03 00:32:47;;;;;;;6.25;4.30;;;;;;;17.28;100.00;97209.75;5113163;28;20212;-54
2023/09/03 00:35:14;;;;;;;5.25;4.25;;;;;;;17.26;100.00;97207.25;5112751;28;20208;-54
2023/09/03 00:37:40;;;;;;;5.28;4.25;;;;;;;17.23;100.00;97206.75;5114263;28;20695;-55
2023/09/03 00:40:08;;;;;;;4.60;4.20;;;;;;;17.25;100.00;97199.41;5116250;28;20197;-53
2023/09/03 00:42:34;;;;;;;4.72;4.32;;;;;;;17.24;100.00;97192.38;5116996;28;20200;-54
2023/09/03 00:45:01;;;;;;;4.60;4.20;;;;;;;17.25;100.00;97204.75;5112914;28;20221;-54
2023/09/03 00:47:27;;;;;;;4.30;4.00;;;;;;;17.21;100.00;97200.75;5112128;28;20197;-53
2023/09/03 00:49:55;;;;;;;4.55;4.15;;;;;;;17.21;100.00;97203.44;5112438;28;20262;-54
2023/09/03 00:52:22;;;;;;;3.78;3.47;;;;;;;17.18;100.00;97198.44;5112423;28;20212;-53
2023/09/03 00:54:49;;;;;;;4.47;4.07;;;;;;;17.23;100.00;97204.06;5113232;28;20209;-53
2023/09/03 00:57:16;;;;;;;4.85;3.85;;;;;;;17.20;100.00;97207.09;5112800;28;20220;-54
2023/09/03 00:59:44;;;;;;;4.20;3.90;;;;;;;17.12;100.00;97207.94;5112744;28;20626;-52
2023/09/03 01:02:12;;;;;;;6.15;4.10;;;;;;;17.09;100.00;97215.47;5112938;28;20278;-54
2023/09/03 01:04:39;;;;;;;5.05;4.07;;;;;;;17.10;100.00;97222.47;5112448;28;20239;-53
2023/09/03 01:07:08;;;;;;;5.32;4.20;;;;;;;17.12;100.00;97232.00;5112145;28;20667;-52
2023/09/03 01:09:34;;;;;;;4.93;4.43;;;;;;;17.13;100.00;97222.13;5112377;28;20211;-54
2023/09/03 01:12:07;;;;;;;4.43;4.03;;;;;;;17.06;100.00;97215.81;5112477;28;20205;-53
2023/09/03 01:14:40;;;;;;;5.78;4.47;;;;;;;16.99;100.00;97217.47;5112186;28;20205;-54
2023/09/03 01:17:13;;;;;;;5.07;4.45;;;;;;;16.95;100.00;97225.00;5112400;28;20580;-52
2023/09/03 01:19:56;;;;;;;5.93;4.18;;;;;;;16.86;100.00;97221.50;5111819;28;20189;-52
2023/09/03 01:22:33;;;;;;;4.35;3.60;;;;;;;16.83;100.00;97227.16;5112134;28;20224;-52
2023/09/03 01:25:09;;;;;;;4.07;3.70;;;;;;;16.86;100.00;97232.19;5112195;28;20193;-53
2023/09/03 01:27:41;;;;;;;4.50;3.70;;;;;;;16.82;100.00;97228.19;5111699;28;20228;-52
2023/09/03 01:30:11;;;;;;;4.45;3.85;;;;;;;16.76;100.00;97226.19;5094253;28;20193;-54
2023/09/03 01:32:38;;;;;;;4.35;3.80;;;;;;;16.82;100.00;97230.88;5111954;28;20209;-53
2023/09/03 01:35:05;;;;;;;3.58;3.22;;;;;;;16.74;100.00;97232.69;5111767;28;20209;-55
2023/09/03 01:37:32;;;;;;;3.90;3.60;;;;;;;16.63;100.00;97231.19;5112041;28;20216;-53
2023/09/03 01:39:59;;;;;;;3.30;3.00;;;;;;;16.62;100.00;97229.50;5112368;28;20206;-53
2023/09/03 01:42:25;;;;;;;5.50;3.55;;;;;;;16.60;100.00;97223.50;5111938;28;20212;-53
2023/09/03 01:44:53;;;;;;;3.63;3.03;;;;;;;16.63;100.00;97225.84;5112691;28;20205;-54
2023/09/03 01:47:28;;;;;;;3.30;3.03;;;;;;;16.62;100.00;97234.84;5113242;28;20201;-53
2023/09/03 01:49:58;;;;;;;3.63;3.30;;;;;;;16.61;100.00;97237.69;5112719;28;20189;-53
2023/09/03 01:52:30;;;;;;;5.85;3.20;;;;;;;16.58;100.00;97243.38;5112068;28;20221;-54
2023/09/03 01:54:57;;;;;;;3.35;3.05;;;;;;;16.54;100.00;97242.84;5111883;28;20201;-55
2023/09/03 01:57:28;;;;;;;5.35;3.65;;;;;;;16.55;100.00;97260.50;5110889;28;20225;-53
2023/09/03 01:59:57;;;;;;;7.13;3.00;;;;;;;16.51;100.00;97253.84;5115226;28;20205;-56
2023/09/03 02:02:26;;;;;;;5.38;3.35;;;;;;;16.49;100.00;97245.16;5118899;28;20204;-55
2023/09/03 02:04:52;;;;;;;5.35;3.40;;;;;;;16.48;100.00;97248.81;5124474;28;20209;-54
2023/09/03 02:07:18;;;;;;;4.28;3.47;;;;;;;16.42;100.00;97241.47;5113587;28;20194;-54
2023/09/03 02:09:44;;;;;;;5.40;3.33;;;;;;;16.48;100.00;97246.16;5112293;28;20216;-53
2023/09/03 02:12:11;;;;;;;3.95;3.45;;;;;;;16.46;100.00;97233.97;5112001;28;20625;-53
2023/09/03 02:14:37;;;;;;;7.75;3.53;;;;;;;16.37;100.00;97243.78;5111725;28;20205;-53
2023/09/03 02:17:04;;;;;;;4.15;3.55;;;;;;;16.36;100.00;97247.50;5111838;28;20220;-53
2023/09/03 02:19:31;;;;;;;4.68;3.33;;;;;;;16.30;100.00;97250.78;5111940;28;20216;-53
2023/09/03 02:21:58;;;;;;;3.85;3.47;;;;;;;16.33;100.00;97247.81;5111231;28;20238;-54
2023/09/03 02:24:24;;;;;;;4.53;3.67;;;;;;;16.34;100.00;97252.13;5108694;28;20205;-54
2023/09/03 02:26:51;;;;;;;7.40;3.67;;;;;;;16.32;100.00;97252.31;5111494;28;20208;-54
2023/09/03 02:29:17;;;;;;;5.75;3.50;;;;;;;16.32;100.00;97254.16;5110960;28;20224;-53
2023/09/03 02:31:44;;;;;;;4.60;3.45;;;;;;;16.29;100.00;97247.31;5111213;28;20205;-52
2023/09/03 02:34:13;;;;;;;4.47;3.40;;;;;;;16.26;100.00;97244.94;5113090;28;20204;-54
2023/09/03 02:36:41;;;;;;;6.30;3.80;;;;;;;16.23;100.00;97239.09;5115270;28;20239;-54
2023/09/03 02:39:08;;;;;;;3.80;3.40;;;;;;;16.23;100.00;97249.78;5115079;28;20213;-53
2023/09/03 02:41:34;;;;;;;5.28;3.45;;;;;;;16.21;100.00;97255.28;5115291;28;20201;-53
2023/09/03 02:44:02;;;;;;;4.43;3.33;;;;;;;16.29;100.00;97249.97;5115451;28;20256;-54
2023/09/03 02:46:29;;;;;;;3.70;3.40;;;;;;;16.29;100.00;97251.81;5114821;28;20219;-55
2023/09/03 02:48:56;;;;;;;3.83;3.53;;;;;;;16.27;100.00;97251.97;5114784;28;20317;-54
2023/09/03 02:51:22;;;;;;;5.20;4.38;;;;;;;16.26;100.00;97254.81;5114946;28;20193;-53
2023/09/03 02:53:51;;;;;;;4.00;3.70;;;;;;;16.24;100.00;97259.47;5115098;28;20365;-52
2023/09/03 02:56:18;;;;;;;5.32;4.20;;;;;;;16.25;100.00;97269.16;5115497;28;20519;-54
2023/09/03 02:58:47;;;;;;;4.18;3.80;;;;;;;16.23;100.00;97271.13;5114660;28;20212;-53
2023/09/03 03:01:15;;;;;;;4.40;4.00;;;;;;;16.21;100.00;97273.97;5115051;28;20205;-53
2023/09/03 03:03:42;;;;;;;4.18;3.80;;;;;;;16.23;100.00;97276.47;5114336;28;20237;-54
2023/09/03 03:06:08;;;;;;;6.82;4.43;;;;;;;16.24;100.00;97272.81;5114584;28;20201;-54
2023/09/03 03:08:35;;;;;;;5.88;3.97;;;;;;;16.25;100.00;97269.97;5115014;28;20201;-54
2023/09/03 03:11:07;;;;;;;4.18;3.85;;;;;;;16.24;100.00;97278.13;5115107;28;20300;-53
2023/09/03 03:13:35;;;;;;;6.70;4.35;;;;;;;16.25;100.00;97280.66;5114652;28;20641;-53
2023/09/03 03:16:06;;;;;;;5.70;3.92;;;;;;;16.30;100.00;97277.47;5114657;28;20201;-53
2023/09/03 03:18:35;;;;;;;5.15;3.92;;;;;;;16.32;100.00;97280.84;5114327;28;20649;-52
2023/09/03 03:21:05;;;;;;;4.30;3.90;;;;;;;16.32;100.00;97275.50;5113757;28;20621;-53
2023/09/03 03:23:32;;;;;;;5.03;4.60;;;;;;;16.30;100.00;97277.47;5114622;28;20243;-52
2023/09/03 03:25:59;;;;;;;5.60;3.97;;;;;;;16.27;100.00;97283.16;5114196;28;20303;-54
2023/09/03 03:28:27;;;;;;;4.47;4.07;;;;;;;16.23;100.00;97277.31;5113452;28;20228;-55
2023/09/03 03:30:53;;;;;;;5.68;4.05;;;;;;;16.23;100.00;97281.81;5112702;28;20692;-54
2023/09/03 03:33:19;;;;;;;4.95;4.20;;;;;;;16.26;100.00;97276.16;5112911;28;20637;-52
2023/09/03 03:35:46;;;;;;;5.22;4.00;;;;;;;16.24;100.00;97284.31;5112673;28;20209;-53
2023/09/03 03:38:12;;;;;;;5.60;4.18;;;;;;;16.19;100.00;97285.81;5113233;28;20236;-54
2023/09/03 03:40:39;;;;;;;6.50;4.85;;;;;;;16.15;100.00;97284.47;5112692;28;20205;-53
2023/09/03 03:43:05;;;;;;;7.03;4.40;;;;;;;16.19;100.00;97270.63;5112911;28;20208;-54
2023/09/03 03:45:34;;;;;;;8.55;4.38;;;;;;;16.14;100.00;97272.13;5112151;28;20598;-53
2023/09/03 03:48:01;;;;;;;4.65;4.10;;;;;;;16.08;100.00;97278.09;5112874;28;20205;-53
2023/09/03 03:50:29;;;;;;;4.68;4.22;;;;;;;16.03;100.00;97280.41;5112207;28;20201;-52
2023/09/03 03:52:56;;;;;;;5.57;4.20;;;;;;;16.03;100.00;97283.06;5112985;28;20209;-53
2023/09/03 03:55:23;;;;;;;4.10;3.80;;;;;;;16.02;100.00;97279.56;5112971;28;20216;-55
2023/09/03 03:57:49;;;;;;;4.75;4.22;;;;;;;16.07;100.00;97287.09;5112466;28;20220;-54
2023/09/03 04:00:16;;;;;;;7.72;4.70;;;;;;;16.06;100.00;97275.59;5112562;28;20620;-53
2023/09/03 04:02:44;;;;;;;5.18;4.35;;;;;;;16.05;100.00;97283.78;5112864;28;20201;-51
2023/09/03 04:05:10;;;;;;;7.65;4.13;;;;;;;16.02;100.00;97290.25;5112955;28;20209;-54
2023/09/03 04:07:37;;;;;;;4.63;3.88;;;;;;;16.00;100.00;97296.75;5112762;28;20957;-53
2023/09/03 04:10:04;;;;;;;4.22;3.63;;;;;;;15.96;100.00;97300.72;5117761;28;21450;-53
2023/09/03 04:12:30;;;;;;;4.50;3.60;;;;;;;15.97;100.00;97299.75;5122441;28;20209;-54
2023/09/03 04:14:57;;;;;;;4.45;4.05;;;;;;;15.93;100.00;97296.56;5124076;28;20200;-54
2023/09/03 04:17:25;;;;;;;5.38;4.03;;;;;;;15.91;100.00;97304.69;5122791;28;20224;-54
2023/09/03 04:19:52;;;;;;;5.53;4.03;;;;;;;15.87;100.00;97313.22;5112423;28;20201;-54
2023/09/03 04:22:19;;;;;;;4.00;3.60;;;;;;;15.82;100.00;97319.00;5112525;28;20212;-54
2023/09/03 04:24:45;;;;;;;5.65;3.60;;;;;;;15.80;100.00;97326.31;5113068;28;20504;-52
2023/09/03 04:27:12;;;;;;;4.07;3.67;;;;;;;15.85;100.00;97334.69;5077234;28;1058727;-53
2023/09/03 04:29:38;;;;;;;4.22;3.83;;;;;;;15.85;100.00;97321.34;5119242;28;20206;-52
2023/09/03 04:32:06;;;;;;;6.38;3.90;;;;;;;15.80;100.00;97312.16;5119135;28;20220;-54
2023/09/03 04:34:32;;;;;;;4.47;4.10;;;;;;;15.77;100.00;97318.63;5113589;28;20231;-52
2023/09/03 04:37:00;;;;;;;5.00;3.70;;;;;;;15.77;100.00;97320.47;5112863;28;20550;-52
2023/09/03 04:39:26;;;;;;;4.32;3.67;;;;;;;15.74;100.00;97316.28;5113307;28;20205;-54
2023/09/03 04:41:53;;;;;;;5.82;4.00;;;;;;;15.69;100.00;97321.28;5113356;28;20220;-52
2023/09/03 04:44:20;;;;;;;4.47;4.07;;;;;;;15.68;100.00;97332.94;5113181;28;20300;-53
2023/09/03 04:46:47;;;;;;;5.25;4.30;;;;;;;15.70;100.00;97340.75;5113255;28;20217;-53
2023/09/03 04:49:13;;;;;;;3.97;3.67;;;;;;;15.70;100.00;97354.09;5113000;28;20201;-53
2023/09/03 04:51:40;;;;;;;4.00;3.70;;;;;;;15.71;100.00;97359.28;5112330;28;20197;-54
2023/09/03 04:54:07;;;;;;;5.93;3.90;;;;;;;15.70;100.00;97354.94;5112524;28;20197;-54
2023/09/03 04:56:34;;;;;;;5.60;3.85;;;;;;;15.72;100.00;97346.78;5111697;28;20205;-54
2023/09/03 04:59:00;;;;;;;4.75;3.78;;;;;;;15.72;100.00;97349.44;5112697;28;20213;-54
2023/09/03 05:01:27;;;;;;;4.80;3.90;;;;;;;15.72;100.00;97344.97;5112879;28;20197;-53
2023/09/03 05:03:53;;;;;;;5.90;3.73;;;;;;;15.71;100.00;97353.09;5112013;28;20541;-53
2023/09/03 05:06:20;;;;;;;4.33;3.93;;;;;;;15.72;100.00;97352.97;5112325;28;20553;-56
2023/09/03 05:08:48;;;;;;;4.72;3.88;;;;;;;15.71;100.00;97348.63;5112200;28;20201;-54
2023/09/03 05:11:16;;;;;;;5.78;3.60;;;;;;;15.75;100.00;97363.31;5112195;28;20212;-55
2023/09/03 05:13:43;;;;;;;4.38;3.45;;;;;;;15.75;100.00;97362.47;5112454;28;20201;-54
2023/09/03 05:16:09;;;;;;;5.43;3.83;;;;;;;15.79;100.00;97369.16;5111566;28;20208;-54
2023/09/03 05:18:36;;;;;;;5.82;3.80;;;;;;;15.84;100.00;97373.00;5111997;28;20274;-55
2023/09/03 05:21:07;;;;;;;5.20;3.58;;;;;;;15.90;100.00;97388.41;5112020;28;20220;-56
2023/09/03 05:23:34;;;;;;;6.35;3.97;;;;;;;15.98;100.00;97387.59;5112466;28;20328;-53
2023/09/03 05:26:01;;;;;;;4.50;4.03;;;;;;;15.99;100.00;97385.75;5112137;28;20216;-54
2023/09/03 05:28:32;;;;;;;5.05;3.85;;;;;;;16.02;100.00;97380.94;5111756;28;20221;-54
2023/09/03 05:30:59;;;;;;;6.03;3.83;;;;;;;16.14;100.00;97386.84;5111503;28;20649;-53
2023/09/03 05:33:25;;;;;;;4.85;3.97;;;;;;;16.16;100.00;97387.53;5112113;28;20258;-54
2023/09/03 05:35:51;;;;;;;4.28;3.97;;;;;;;16.19;100.00;97381.88;5111737;28;20197;-54
2023/09/03 05:38:18;;;;;;;5.30;4.25;;;;;;;16.22;100.00;97382.41;5111564;28;20687;-53
2023/09/03 05:40:45;;;;;;;4.60;4.20;;;;;;;16.24;100.00;97380.41;5111871;28;20205;-53
2023/09/03 05:43:11;;;;;;;4.90;4.15;;;;;;;16.30;100.00;97389.59;5112063;28;20201;-56
2023/09/03 05:45:44;;;;;;;7.15;4.10;;;;;;;16.39;100.00;97393.97;5113003;28;20205;-57
2023/09/03 05:48:11;;;;;;;4.30;3.90;;;;;;;16.49;100.00;97404.53;5113087;28;20227;-54
2023/09/03 05:50:38;;;;;;;4.15;3.80;;;;;;;16.57;100.00;97402.75;5112523;28;20232;-53
2023/09/03 05:53:04;;;;;;;5.25;3.90;;;;;;;16.63;100.00;97407.44;5112459;28;20205;-54
2023/09/03 05:55:31;;;;;;;4.63;4.22;;;;;;;16.67;100.00;97407.97;5111561;28;20518;-55
2023/09/03 05:57:58;;;;;;;4.45;4.03;;;;;;;16.78;100.00;97408.50;5111402;28;20240;-53
2023/09/03 06:00:26;;;;;;;4.75;4.35;;;;;;;16.89;100.00;97408.19;5111020;28;20236;-52
2023/09/03 06:02:54;;;;;;;4.68;4.38;;;;;;;16.97;100.00;97409.22;5111342;28;20292;-52
2023/09/03 06:05:20;;;;;;;4.70;4.30;;;;;;;17.04;100.00;97404.88;5110608;28;20295;-53
2023/09/03 06:07:47;;;;;;;4.88;4.47;;;;;;;17.20;100.00;97410.25;5111408;28;20228;-54
2023/09/03 06:10:14;;;;;;;4.93;4.53;;;;;;;17.28;100.00;97408.44;5111600;28;20208;-54
2023/09/03 06:12:40;;;;;;;5.38;4.80;;;;;;;17.35;100.00;97405.91;5111534;28;20284;-54
2023/09/03 06:15:08;;;;;;;5.05;4.47;;;;;;;17.46;100.00;97410.09;5111387;28;20213;-54
2023/09/03 06:17:34;;;;;;;5.20;4.80;;;;;;;17.54;100.00;97407.41;5111279;28;20244;-53
2023/09/03 06:20:03;;;;;;;4.90;4.50;;;;;;;17.67;100.00;97413.97;5111649;28;20193;-54
2023/09/03 06:22:29;;;;;;;5.38;4.88;;;;;;;17.80;100.00;97413.44;5112416;28;20700;-52
2023/09/03 06:24:56;;;;;;;5.22;4.68;;;;;;;17.92;100.00;97404.88;5112337;28;20201;-54
2023/09/03 06:27:22;;;;;;;6.10;5.20;;;;;;;17.96;100.00;97412.59;5114552;28;20233;-59
2023/09/03 06:29:49;;;;;;;5.70;5.20;;;;;;;18.11;100.00;97416.22;5111817;28;20189;-55
2023/09/03 06:32:15;;;;;;;7.97;4.97;;;;;;;18.34;100.00;97433.25;5111181;28;20206;-54
2023/09/03 06:34:42;;;;;;;8.80;5.32;;;;;;;18.58;100.00;97435.03;5109938;28;20209;-54
2023/09/03 06:37:10;;;;;;;6.85;5.70;;;;;;;18.91;100.00;97443.75;5111099;28;20220;-54
2023/09/03 06:39:36;;;;;;;5.50;5.00;;;;;;;19.09;100.00;97450.53;5110602;28;20229;-56
2023/09/03 06:42:03;;;;;;;7.53;5.50;;;;;;;19.23;100.00;97440.88;5110702;28;20209;-54
2023/09/03 06:44:29;;;;;;;5.93;5.18;;;;;;;19.42;100.00;97445.81;5110311;28;20208;-54
2023/09/03 06:46:56;;;;;;;8.07;5.65;;;;;;;19.54;100.00;97455.13;5110788;28;20201;-54
2023/09/03 06:49:22;;;;;;;7.28;5.78;;;;;;;19.69;100.00;97464.06;5110626;28;20209;-56
2023/09/03 06:51:50;;;;;;;6.82;5.60;;;;;;;19.96;100.00;97461.81;5110561;28;20212;-54
2023/09/03 06:54:18;;;;;;;7.10;6.00;;;;;;;20.16;100.00;97469.16;5110653;28;20220;-56
2023/09/03 06:56:45;;;;;;;9.05;5.90;;;;;;;20.34;100.00;97480.44;5110744;28;20234;-54
2023/09/03 06:59:11;;;;;;;6.05;5.55;;;;;;;20.51;100.00;97475.69;5110556;28;20232;-55
2023/09/03 07:01:38;;;;;;;6.75;5.88;;;;;;;20.79;100.00;97484.81;5110794;28;20193;-55
2023/09/03 07:04:04;;;;;;;6.03;5.10;;;;;;;21.14;100.00;97488.59;5110394;28;20215;-56
2023/09/03 07:06:31;;;;;;;6.03;5.50;;;;;;;21.23;100.00;97489.31;5110063;28;20213;-55
2023/09/03 07:08:57;;;;;;;5.88;5.38;;;;;;;21.21;100.00;97497.59;5110618;28;20221;-53
2023/09/03 07:11:25;;;;;;;6.97;5.60;;;;;;;21.44;100.00;97501.97;5110220;28;20205;-53
2023/09/03 07:13:52;;;;;;;6.55;5.95;;;;;;;21.45;100.00;97501.78;5110470;28;20213;-54
2023/09/03 07:16:19;;;;;;;6.00;5.40;;;;;;;21.46;100.00;97499.94;5110800;28;20212;-52
2023/09/03 07:18:45;;;;;;;6.10;5.40;;;;;;;21.38;100.00;97511.63;5110286;28;20469;-54
2023/09/03 07:21:12;;;;;;;6.15;5.65;;;;;;;21.44;100.00;97516.25;5113592;28;20205;-53
2023/09/03 07:23:38;;;;;;;6.57;5.35;;;;;;;21.37;100.00;97507.28;5114583;28;20216;-53
2023/09/03 07:26:08;;;;;;;5.30;4.80;;;;;;;21.47;100.00;97521.25;5114898;28;20205;-53
2023/09/03 07:28:36;;;;;;;5.70;5.20;;;;;;;21.59;100.00;97518.91;5114409;28;20257;-53
2023/09/03 07:31:02;;;;;;;6.25;5.53;;;;;;;21.60;100.00;97532.19;5114676;28;20240;-55
2023/09/03 07:33:29;;;;;;;6.18;5.57;;;;;;;21.76;100.00;97529.25;5114770;28;20209;-53
2023/09/03 07:35:55;;;;;;;6.05;5.40;;;;;;;21.79;100.00;97536.94;5114399;28;20213;-55
2023/09/03 07:38:21;;;;;;;7.88;6.53;;;;;;;21.91;100.00;97534.59;5115308;28;20220;-56
2023/09/03 07:40:48;;;;;;;5.70;5.13;;;;;;;22.15;100.00;97536.91;5115228;28;20254;-55
2023/09/03 07:43:15;;;;;;;6.05;5.55;;;;;;;22.37;100.00;97537.72;5115595;28;20247;-53
2023/09/03 07:45:43;;;;;;;6.13;5.63;;;;;;;22.61;99.14;97521.09;5116511;28;20219;-53
2023/09/03 07:48:09;;;;;;;6.82;5.80;;;;;;;22.62;96.01;97519.22;5116482;28;20201;-54
2023/09/03 07:50:38;;;;;;;5.53;5.07;;;;;;;22.75;97.47;97522.03;5116304;28;20205;-55
2023/09/03 07:53:05;;;;;;;6.05;5.35;;;;;;;22.66;97.21;97518.66;5116337;28;20220;-56
2023/09/03 07:55:31;;;;;;;5.57;5.13;;;;;;;22.48;100.00;97512.91;5116116;28;20297;-55
2023/09/03 07:57:58;;;;;;;7.35;5.75;;;;;;;22.58;99.90;97509.88;5116389;28;20193;-53
2023/09/03 08:00:24;;;;;;;6.57;5.88;;;;;;;22.49;99.49;97503.81;5114605;28;20223;-55
2023/09/03 08:02:52;;;;;;;6.22;5.50;;;;;;;22.42;99.67;97511.00;5115276;28;20201;-58
2023/09/03 08:05:19;;;;;;;5.82;5.30;;;;;;;22.26;100.00;97519.38;5113700;28;20216;-56
2023/09/03 08:07:45;;;;;;;5.72;5.05;;;;;;;22.27;100.00;97516.50;5114361;28;20231;-53
2023/09/03 08:10:12;;;;;;;5.57;5.07;;;;;;;22.37;100.00;97510.75;5114602;28;20300;-54
2023/09/03 08:12:39;;;;;;;5.88;5.38;;;;;;;22.56;100.00;97511.94;5114824;28;20205;-52
2023/09/03 08:15:06;;;;;;;5.45;4.95;;;;;;;22.54;99.40;97504.03;5114247;28;20220;-53
2023/09/03 08:17:33;;;;;;;5.70;5.20;;;;;;;22.60;100.00;97507.81;5114149;28;20552;-54
2023/09/03 08:20:01;;;;;;;5.88;5.28;;;;;;;22.65;99.23;97516.97;5118373;28;20221;-54
2023/09/03 08:22:27;;;;;;;5.25;4.80;;;;;;;22.72;98.89;97517.88;5120576;28;20208;-55
2023/09/03 08:24:54;;;;;;;5.32;4.70;;;;;;;22.92;96.91;97517.16;5118972;28;20216;-54
2023/09/03 08:27:20;;;;;;;5.57;4.95;;;;;;;23.09;98.16;97518.50;5118591;28;20224;-54
2023/09/03 08:29:46;;;;;;;4.85;4.25;;;;;;;23.27;93.66;97522.34;5121005;28;20211;-55
2023/09/03 08:32:13;;;;;;;4.95;4.55;;;;;;;23.56;92.31;97523.91;5121380;28;20209;-56
2023/09/03 08:34:39;;;;;;;5.32;4.82;;;;;;;23.75;92.92;97520.44;5118632;28;20205;-55
2023/09/03 08:37:07;;;;;;;5.50;4.70;;;;;;;23.78;89.09;97517.31;5115779;28;20200;-56
2023/09/03 08:39:34;;;;;;;4.53;4.13;;;;;;;23.94;88.08;97526.06;5116472;28;20216;-54
2023/09/03 08:42:00;;;;;;;4.40;4.00;;;;;;;24.08;88.19;97519.66;5113578;28;20197;-52
2023/09/03 08:44:30;;;;;;;5.57;4.70;;;;;;;24.02;86.52;97517.78;5113584;28;20212;-53
2023/09/03 08:46:59;;;;;;;4.45;3.88;;;;;;;24.22;86.76;97524.88;5113310;28;20510;-54
2023/09/03 08:49:27;;;;;;;4.40;4.00;;;;;;;24.27;86.69;97527.78;5113316;28;20204;-53
2023/09/03 08:51:53;;;;;;;4.53;4.20;;;;;;;24.41;85.70;97525.91;5112765;28;20213;-54
2023/09/03 08:54:21;;;;;;;4.80;3.85;;;;;;;24.65;86.86;97527.16;5112812;28;20216;-53
2023/09/03 08:56:49;;;;;;;5.50;4.65;;;;;;;24.52;88.05;97519.03;5112640;28;20205;-53
2023/09/03 08:59:15;;;;;;;4.13;3.85;;;;;;;24.51;82.29;97518.22;5112830;28;20243;-54
2023/09/03 09:01:43;;;;;;;4.40;3.85;;;;;;;24.81;88.17;97520.47;5112848;28;20196;-53
2023/09/03 09:04:09;;;;;;;5.43;4.35;;;;;;;25.07;85.58;97515.03;5112842;28;20209;-53
2023/09/03 09:06:38;;;;;;;5.07;3.88;;;;;;;25.05;82.59;97509.81;5111723;28;20251;-54
2023/09/03 09:09:05;;;;;;;4.50;4.10;;;;;;;25.16;84.24;97516.44;5113021;28;20193;-53
2023/09/03 09:11:36;;;;;;;5.80;3.83;;;;;;;25.27;82.35;97516.59;5112986;27;20204;-55
2023/09/03 09:14:05;;;;;;;3.92;3.63;;;;;;;25.05;79.90;97517.09;5112522;28;20258;-54
2023/09/03 09:16:32;;;;;;;4.07;3.65;;;;;;;24.71;80.39;97510.06;5113089;28;20197;-53
2023/09/03 09:19:02;;;;;;;3.80;3.50;;;;;;;24.83;79.90;97511.16;5114057;28;20663;-53
2023/09/03 09:21:30;;;;;;;3.95;3.60;;;;;;;25.09;80.46;97502.94;5111851;28;20526;-54
2023/09/03 09:24:01;;;;;;;3.85;3.47;;;;;;;25.30;82.23;97504.50;5113073;28;20205;-53
2023/09/03 09:26:31;;;;;;;3.80;3.53;;;;;;;25.20;80.46;97504.13;5113268;28;20197;-58
2023/09/03 09:29:00;;;;;;;3.92;3.60;;;;;;;25.30;78.15;97498.25;5113146;28;20217;-55
2023/09/03 09:31:29;;;;;;;4.53;3.42;;;;;;;25.13;78.36;97496.06;5112736;28;20216;-55
2023/09/03 09:33:55;;;;;;;3.60;3.30;;;;;;;25.54;78.96;97494.88;5113459;28;20214;-53
2023/09/03 09:36:22;;;;;;;4.07;3.28;;;;;;;25.77;78.90;97499.72;5112180;28;20201;-55
2023/09/03 09:38:49;;;;;;;4.85;3.75;;;;;;;25.87;77.72;97500.06;5112755;28;20205;-54
2023/09/03 09:41:23;;;;;;;3.88;3.53;;;;;;;25.68;76.22;97513.50;5112852;28;20208;-53
2023/09/03 09:43:49;;;;;;;3.22;3.00;;;;;;;25.99;79.54;97514.59;5112117;28;20204;-54
2023/09/03 09:46:30;;;;;;;3.45;3.15;;;;;;;26.24;78.74;97512.78;5111966;28;20208;-54
2023/09/03 09:48:57;;;;;;;4.03;3.63;;;;;;;26.24;75.80;97512.78;5112598;28;20199;-54
2023/09/03 09:51:32;;;;;;;4.03;3.70;;;;;;;26.25;76.50;97506.31;5113461;28;20193;-55
2023/09/03 09:54:00;;;;;;;3.40;3.20;;;;;;;26.41;76.78;97496.78;5113573;28;20205;-53
2023/09/03 09:56:28;;;;;;;4.20;3.80;;;;;;;26.62;79.12;97505.34;5113259;28;20196;-53
2023/09/03 09:58:56;;;;;;;3.80;3.50;;;;;;;26.59;77.22;97505.78;5112751;28;20201;-56
2023/09/03 10:01:25;;;;;;;3.78;3.17;;;;;;;26.63;76.71;97506.16;5097000;28;20220;-55
2023/09/03 10:03:53;;;;;;;3.35;3.05;;;;;;;26.80;74.60;97512.69;5114243;28;20254;-53
2023/09/03 10:06:22;;;;;;;3.03;2.83;;;;;;;26.96;73.75;97505.88;5112383;28;20535;-54
2023/09/03 10:08:51;;;;;;;3.35;2.90;;;;;;;27.04;73.17;97508.28;5113325;28;20220;-54
2023/09/03 10:11:17;;;;;;;3.60;3.30;;;;;;;27.25;71.13;97509.69;5112987;28;20208;-54
2023/09/03 10:13:45;;;;;;;3.30;3.00;;;;;;;27.06;73.36;97501.59;5113941;28;20197;-59
2023/09/03 10:16:12;;;;;;;3.22;3.03;;;;;;;26.83;72.46;97497.84;5113197;28;20280;-54
2023/09/03 10:18:40;;;;;;;3.70;3.25;;;;;;;26.84;74.74;97494.94;5113103;28;20728;-53
2023/09/03 10:21:11;;;;;;;4.25;3.17;;;;;;;26.80;72.92;97492.84;5112326;28;20252;-53
2023/09/03 10:23:42;;;;;;;3.10;2.90;;;;;;;26.94;74.48;97492.50;5113511;28;20206;-54
2023/09/03 10:26:10;;;;;;;3.25;3.05;;;;;;;26.71;75.30;97493.13;5112453;28;20513;-53
2023/09/03 10:28:40;;;;;;;3.30;3.00;;;;;;;26.78;74.97;97494.97;5112836;28;20248;-53
2023/09/03 10:31:07;;;;;;;3.60;3.30;;;;;;;26.69;77.20;97492.53;5112366;28;20194;-53
2023/09/03 10:33:35;;;;;;;3.08;2.88;;;;;;;26.59;75.26;97494.94;5113049;28;20220;-52
2023/09/03 10:36:16;;;;;;;3.20;2.97;;;;;;;26.60;75.45;97491.19;5124735;28;20203;-54
2023/09/03 10:38:44;;;;;;;4.38;3.05;;;;;;;26.64;77.40;97494.28;5132761;28;20181;-54
2023/09/03 10:41:21;;;;;;;3.80;3.10;;;;;;;26.52;77.42;97488.75;5122257;28;20216;-52
2023/09/03 10:43:50;;;;;;;3.20;3.00;;;;;;;26.56;78.43;97481.81;5113239;28;20223;-53
2023/09/03 10:46:17;;;;;;;3.30;3.10;;;;;;;26.49;76.65;97480.22;5111823;28;20197;-53
2023/09/03 10:48:52;;;;;;;3.30;3.10;;;;;;;26.56;78.48;97468.25;5112131;28;20205;-53
2023/09/03 10:51:38;;;;;;;3.28;3.08;;;;;;;26.57;76.75;97475.31;5112158;28;20224;-53
2023/09/03 10:54:18;;;;;;;3.22;3.00;;;;;;;26.57;78.36;97472.59;5111561;28;20201;-52
2023/09/03 10:57:16;;;;;;;3.47;3.10;;;;;;;26.59;79.07;97480.53;5115009;28;20542;-53
2023/09/03 11:00:09;;;;;;;3.65;3.00;;;;;;;26.60;81.25;97479.50;5115444;28;20228;-54
2023/09/03 11:02:36;;;;;;;4.38;3.25;;;;;;;26.68;77.72;97482.72;5115210;28;20203;-53
2023/09/03 11:05:13;;;;;;;2.95;2.70;;;;;;;26.78;76.08;97482.22;5114191;28;20193;-52
2023/09/03 11:07:42;;;;;;;3.40;3.10;;;;;;;27.01;76.07;97473.44;5115050;28;20196;-53
2023/09/03 11:10:39;;;;;;;3.30;3.10;;;;;;;27.07;72.70;97481.50;5119772;28;20197;-53
2023/09/03 11:13:13;;;;;;;3.30;3.10;;;;;;;27.03;73.32;97476.75;5123085;28;20616;-55
2023/09/03 11:15:51;;;;;;;3.03;2.72;;;;;;;27.12;74.41;97481.66;5122331;28;20228;-53
2023/09/03 11:18:19;;;;;;;3.28;2.80;;;;;;;27.32;77.94;97467.81;5116704;28;20200;-55
2023/09/03 11:20:46;;;;;;;3.20;3.00;;;;;;;27.36;74.81;97469.03;5114722;28;20238;-53
2023/09/03 11:23:14;;;;;;;3.00;2.72;;;;;;;27.48;72.72;97467.22;5114769;28;20207;-54
2023/09/03 11:25:41;;;;;;;3.67;3.10;;;;;;;27.47;69.53;97476.44;5114077;28;20197;-53
2023/09/03 11:28:11;;;;;;;2.70;2.50;;;;;;;27.53;72.38;97472.78;5114639;28;20221;-52
2023/09/03 11:30:38;;;;;;;3.75;2.83;;;;;;;27.42;73.44;97467.28;5114092;28;20296;-53